METAR Data
IDs: Format: Raw Decoded Include TAF

Data at: 1425 UTC 10 Aug 2022

KHAF 101415Z AUTO 00000KT 8SM OVC014 15/15 A3007 RMK AO2
KHAF 101355Z AUTO 00000KT 8SM OVC012 14/14 A3006 RMK AO2
KHAF 101335Z AUTO 00000KT 8SM OVC010 13/13 A3005 RMK AO2
KHAF 101315Z AUTO 00000KT 8SM OVC010 13/13 A3005 RMK AO2
KHAF 101255Z AUTO 00000KT 4SM BR BKN011 12/12 A3004 RMK AO2
KHAF 101235Z AUTO 00000KT 8SM FEW013 13/13 A3004 RMK AO2
KHAF 101215Z AUTO 00000KT 8SM CLR 13/13 A3004 RMK AO2
KHAF 101155Z AUTO 00000KT 8SM CLR 13/13 A3003 RMK AO2
KHAF 101135Z AUTO 00000KT 8SM CLR 13/13 A3003 RMK AO2
KHAF 101115Z AUTO 00000KT 9SM BKN014 14/14 A3003 RMK AO2
KHAF 101055Z AUTO 00000KT 9SM OVC015 14/14 A3003 RMK AO2
KHAF 101035Z AUTO 00000KT 9SM OVC015 14/14 A3003 RMK AO2
KHAF 101015Z AUTO 00000KT 9SM OVC015 14/13 A3003 RMK AO2
KHAF 100955Z AUTO 00000KT 9SM OVC016 14/14 A3004 RMK AO2
KHAF 100935Z AUTO 00000KT 9SM BKN017 13/13 A3004 RMK AO2
KHAF 100915Z AUTO 06003KT 8SM SCT015 13/13 A3004 RMK AO2
KHAF 100855Z AUTO 00000KT 9SM CLR 13/13 A3004 RMK AO2
KHAF 100835Z AUTO 00000KT 9SM CLR 13/13 A3004 RMK AO2
KHAF 100815Z AUTO 00000KT 9SM CLR 14/14 A3004 RMK AO2
KHAF 100755Z AUTO 00000KT 8SM CLR 14/14 A3005 RMK AO2
KHAF 100735Z AUTO 00000KT 9SM FEW018 FEW024 SCT043 15/14 A3005 RMK AO2
KHAF 100715Z AUTO 00000KT 9SM SCT017 SCT022 BKN042 15/15 A3005 RMK AO2
KHAF 100655Z AUTO 04003KT 9SM BKN016 BKN043 16/15 A3005 RMK AO2
KHAF 100635Z AUTO 00000KT 9SM BKN012 BKN017 16/16 A3005 RMK AO2
KHAF 100615Z AUTO 8SM BKN013 16/16 A3004 RMK AO2
KHAF 100555Z AUTO 9SM OVC011 17/17 A3004 RMK AO2
KHAF 100535Z AUTO 00000KT 9SM OVC010 17/17 A3004 RMK AO2
KHAF 100515Z AUTO 00000KT 9SM OVC011 17/16 A3004 RMK AO2
KHAF 100455Z AUTO 00000KT 9SM BKN012 17/17 A3003 RMK AO2
KHAF 100435Z AUTO 00000KT 9SM BKN010 BKN014 17/17 A3002 RMK AO2
KHAF 100415Z AUTO 00000KT 9SM OVC010 17/17 A3002 RMK AO2
KHAF 100355Z AUTO 00000KT 9SM OVC011 17/17 A3001 RMK AO2
KHAF 100335Z AUTO 00000KT 8SM BKN011 17/17 A3001 RMK AO2
KHAF 100315Z AUTO 17003KT 8SM SCT010 17/17 A3001 RMK AO2
KHAF 100255Z AUTO 00000KT 8SM BKN010 17/17 A3001 RMK AO2
KHAF 100235Z AUTO 9SM BKN011 18/17 A3000 RMK AO2
KHAF 100215Z AUTO 26004KT 8SM FEW012 18/17 A3000 RMK AO2
KHAF 100155Z AUTO 26004KT 9SM CLR 18/17 A3000 RMK AO2
KHAF 100135Z AUTO 8SM CLR 19/17 A3000 RMK AO2
KHAF 100115Z AUTO 28006KT 9SM CLR 19/17 A3001 RMK AO2
KHAF 100055Z AUTO 28005KT 9SM CLR 19/17 A3001 RMK AO2
KHAF 100035Z AUTO 30005KT 8SM CLR 19/17 A3001 RMK AO2
KHAF 100015Z AUTO 9SM CLR 19/17 A3001 RMK AO2
KHAF 092355Z AUTO 30007KT 8SM CLR 19/17 A3001 RMK AO2
KHAF 092335Z AUTO 29008KT 9SM CLR 19/17 A3001 RMK AO2
KHAF 092315Z AUTO 29008KT 9SM CLR 19/17 A3001 RMK AO2
KHAF 092255Z AUTO 29009KT 9SM CLR 19/17 A3001 RMK AO2
KHAF 092235Z AUTO 29009KT 270V330 10SM CLR 20/17 A3002 RMK AO2
KHAF 092215Z AUTO 29008KT 8SM CLR 19/17 A3001 RMK AO2
KHAF 092155Z AUTO 29008KT 9SM CLR 20/17 A3002 RMK AO2
KHAF 092135Z AUTO 30007KT 9SM CLR 20/17 A3002 RMK AO2
KHAF 092115Z AUTO 30007KT 9SM CLR 19/17 A3002 RMK AO2
KHAF 092055Z AUTO VRB06KT 9SM CLR 20/17 A3003 RMK AO2
KHAF 092035Z AUTO 27008KT 8SM CLR 19/16 A3003 RMK AO2
KHAF 092015Z AUTO 28007KT 9SM CLR 20/16 A3003 RMK AO2
KHAF 091955Z AUTO VRB05KT 9SM FEW013 19/16 A3003 RMK AO2
KHAF 091935Z AUTO 31006KT 9SM BKN013 19/16 A3003 RMK AO2
KHAF 091915Z AUTO 30006KT 9SM SCT013 19/16 A3004 RMK AO2
KHAF 091855Z AUTO 29007KT 250V340 9SM SCT017 20/17 A3004 RMK AO2
KHAF 091835Z AUTO 31007KT 8SM BKN018 19/16 A3003 RMK AO2
KHAF 091815Z AUTO 29006G12KT 8SM FEW012 OVC019 18/17 A3004 RMK AO2
KHAF 091755Z AUTO VRB06KT 9SM SCT013 OVC019 19/17 A3003 RMK AO2
KHAF 091735Z AUTO 30005G11KT 9SM OVC015 19/17 A3003 RMK AO2
KHAF 091715Z AUTO 32007KT 9SM BKN012 19/16 A3002 RMK AO2
KHAF 091655Z AUTO 30007KT 9SM BKN013 18/17 A3002 RMK AO2
KHAF 091635Z AUTO 33005KT 9SM SCT008 SCT012 18/17 A3002 RMK AO2
KHAF 091615Z AUTO 32005KT 8SM BKN008 BKN017 BKN021 18/17 A3002 RMK AO2
KHAF 091555Z AUTO 8SM FEW008 OVC016 17/17 A3002 RMK AO2
KHAF 091535Z AUTO 9SM OVC016 17/17 A3002 RMK AO2
KHAF 091515Z AUTO 9SM OVC017 17/17 A3001 RMK AO2
KHAF 091455Z AUTO 9SM OVC018 17/16 A3001 RMK AO2
KHAF 091435Z AUTO 9SM OVC017 17/16 A3001 RMK AO2
KHAF 091415Z AUTO 33005KT 9SM OVC016 17/16 A3000 RMK AO2
KHAF 091355Z AUTO 32005KT 8SM OVC015 17/16 A3000 RMK AO2
KHAF 091335Z AUTO 32005KT 9SM OVC014 17/16 A3000 RMK AO2
KHAF 091315Z AUTO 32006KT 10SM OVC014 17/16 A2999 RMK AO2
KHAF 091255Z AUTO 33008KT 9SM OVC015 17/16 A2999 RMK AO2
KHAF 091235Z AUTO 31007KT 9SM OVC015 16/16 A2999 RMK AO2
KHAF 091215Z AUTO 32005KT 9SM OVC015 17/17 A2998 RMK AO2
KHAF 091155Z AUTO 32006KT 9SM OVC013 17/17 A2998 RMK AO2
KHAF 091135Z AUTO 33007KT 9SM OVC013 17/16 A2998 RMK AO2
KHAF 091115Z AUTO 32006KT 9SM OVC012 17/17 A2998 RMK AO2
KHAF 091055Z AUTO 33006KT 9SM OVC012 17/16 A2998 RMK AO2
KHAF 091035Z AUTO 31006KT 9SM OVC013 16/16 A2998 RMK AO2
KHAF 091015Z AUTO 30004KT 8SM FEW007 OVC014 16/16 A2999 RMK AO2
KHAF 090955Z AUTO 31005KT 8SM BKN007 OVC012 16/16 A2999 RMK AO2
KHAF 090935Z AUTO 30003KT 9SM BKN006 OVC010 16/16 A2999 RMK AO2
KHAF 090915Z AUTO 31004KT 8SM BKN006 OVC012 16/16 A2999 RMK AO2
KHAF 090855Z AUTO 31004KT 8SM SCT007 OVC013 16/16 A2999 RMK AO2
KHAF 090835Z AUTO 31004KT 8SM BKN007 OVC014 16/16 A2999 RMK AO2
KHAF 090815Z AUTO 31003KT 8SM OVC007 16/16 A3000 RMK AO2
KHAF 090755Z AUTO 8SM BKN007 OVC012 16/16 A3000 RMK AO2
KHAF 090735Z AUTO 9SM OVC006 16/16 A3000 RMK AO2
KHAF 090715Z AUTO 31005KT 8SM OVC006 17/16 A3000 RMK AO2
KHAF 090655Z AUTO 32006KT 8SM OVC006 17/16 A2999 RMK AO2
KHAF 090635Z AUTO 33006KT 9SM OVC007 17/16 A2999 RMK AO2
KHAF 090615Z AUTO 33006KT 8SM BKN007 OVC011 17/16 A3000 RMK AO2
KHAF 090555Z AUTO 33007KT 8SM OVC007 17/16 A3000 RMK AO2
KHAF 090535Z AUTO 33007KT 8SM OVC007 16/16 A3000 RMK AO2
KHAF 090515Z AUTO 32005KT 8SM OVC007 16/16 A3000 RMK AO2
KHAF 090455Z AUTO 33007KT 8SM BKN006 16/16 A3000 RMK AO2
KHAF 090435Z AUTO 34004KT 8SM BKN006 16/16 A2999 RMK AO2
KHAF 090415Z AUTO 33006KT 8SM BKN007 16/16 A2999 RMK AO2
KHAF 090355Z AUTO 34007KT 9SM OVC008 17/17 A2999 RMK AO2
KHAF 090335Z AUTO 34008KT 9SM OVC008 17/17 A2999 RMK AO2
KHAF 090315Z AUTO 34008KT 8SM OVC008 17/17 A2999 RMK AO2
KHAF 090255Z AUTO 8SM OVC008 17/17 A2999 RMK AO2
KHAF 090235Z AUTO 32011KT 7SM BKN008 17/17 A2999 RMK AO2